createdAt,value
2022-11-15T00:02:09.902Z,100395.75
2022-11-15T00:04:39.674Z,100398.38
2022-11-15T00:07:14.908Z,100402.75
2022-11-15T00:09:51.980Z,100393.91
2022-11-15T00:12:22.113Z,100391.88
2022-11-15T00:14:53.545Z,100395.44
2022-11-15T00:17:23.654Z,100393.50
2022-11-15T00:19:53.165Z,100390.63
2022-11-15T00:22:22.707Z,100394.59
2022-11-15T00:24:52.235Z,100385.34
2022-11-15T00:27:21.917Z,100384.03
2022-11-15T00:29:53.194Z,100387.31
2022-11-15T00:32:22.722Z,100376.94
2022-11-15T00:34:52.430Z,100374.59
2022-11-15T00:37:22.177Z,100373.50
2022-11-15T00:39:51.828Z,100373.13
2022-11-15T00:42:21.259Z,100368.53
2022-11-15T00:44:50.750Z,100365.56
2022-11-15T00:47:21.764Z,100365.31
2022-11-15T00:49:51.308Z,100367.97
2022-11-15T00:52:21.006Z,100367.13
2022-11-15T00:54:50.524Z,100359.34
2022-11-15T00:57:20.052Z,100362.44
2022-11-15T00:59:49.623Z,100356.31
2022-11-15T01:02:19.262Z,100356.31
2022-11-15T01:04:50.177Z,100353.09
2022-11-15T01:07:19.777Z,100348.13
2022-11-15T01:09:49.548Z,100351.63
2022-11-15T01:12:19.705Z,100357.06
2022-11-15T01:14:49.961Z,100351.84
2022-11-15T01:17:19.947Z,100343.03
2022-11-15T01:19:50.887Z,100349.91
2022-11-15T01:22:20.444Z,100344.19
2022-11-15T01:24:51.318Z,100342.06
2022-11-15T01:27:20.932Z,100342.91
2022-11-15T01:29:50.425Z,100343.44
2022-11-15T01:32:19.970Z,100337.78
2022-11-15T01:34:50.959Z,100342.84
2022-11-15T01:37:20.461Z,100342.84
2022-11-15T01:39:49.965Z,100331.56
2022-11-15T01:42:20.296Z,100341.06
2022-11-15T01:44:51.213Z,100332.75
2022-11-15T01:47:22.729Z,100337.78
2022-11-15T01:49:55.993Z,100336.03
2022-11-15T01:52:27.162Z,100336.94
2022-11-15T01:54:59.117Z,100335.66
2022-11-15T01:57:28.723Z,100328.28
2022-11-15T01:59:59.443Z,100328.16
2022-11-15T02:02:29.053Z,100326.28
2022-11-15T02:05:00.189Z,100327.91
2022-11-15T02:07:30.484Z,100331.31
2022-11-15T02:10:01.400Z,100320.44
2022-11-15T02:12:32.631Z,100321.41
2022-11-15T02:15:03.706Z,100323.88
2022-11-15T02:17:50.847Z,100322.16
2022-11-15T02:20:45.618Z,100321.41
2022-11-15T02:23:32.945Z,100318.81
2022-11-15T02:26:11.140Z,100310.97
2022-11-15T02:28:47.661Z,100314.03
2022-11-15T02:31:22.469Z,100311.47
2022-11-15T02:33:55.401Z,100319.34
2022-11-15T02:36:31.936Z,100312.31
2022-11-15T02:39:11.628Z,100315.06
2022-11-15T02:41:48.249Z,100313.59
2022-11-15T02:44:19.213Z,100310.19
2022-11-15T02:47:09.435Z,100309.66
2022-11-15T02:49:39.792Z,100315.75
2022-11-15T02:52:09.335Z,100313.19
2022-11-15T02:54:38.988Z,100319.16
2022-11-15T02:57:12.724Z,100306.06
2022-11-15T03:00:06.237Z,100305.75
2022-11-15T03:02:51.813Z,100310.81
2022-11-15T03:05:26.698Z,100305.31
2022-11-15T03:08:02.325Z,100306.63
2022-11-15T03:10:38.270Z,100306.94
2022-11-15T03:13:15.183Z,100303.28
2022-11-15T03:15:49.872Z,100306.28
2022-11-15T03:18:23.695Z,100306.53
2022-11-15T03:20:54.277Z,100310.97
2022-11-15T03:23:24.399Z,100304.72
2022-11-15T03:25:55.732Z,100306.00
2022-11-15T03:28:27.532Z,100306.72
2022-11-15T03:30:58.334Z,100303.38
2022-11-15T03:33:30.515Z,100302.34
2022-11-15T03:36:00.854Z,100293.22
2022-11-15T03:38:32.864Z,100294.91
2022-11-15T03:41:03.678Z,100288.31
2022-11-15T03:43:36.457Z,100290.94
2022-11-15T03:46:09.467Z,100292.28
2022-11-15T03:48:42.730Z,100282.44
2022-11-15T03:51:13.293Z,100289.78
2022-11-15T03:53:43.209Z,100283.63
2022-11-15T03:56:12.737Z,100281.69
2022-11-15T03:58:42.479Z,100286.19
2022-11-15T04:01:12.122Z,100282.78
2022-11-15T04:03:42.966Z,100280.63
2022-11-15T04:06:12.711Z,100277.88
2022-11-15T04:08:42.302Z,100281.41
2022-11-15T04:11:11.802Z,100279.50
2022-11-15T04:13:41.753Z,100281.59
2022-11-15T04:16:11.896Z,100281.91
2022-11-15T04:18:43.007Z,100277.13
2022-11-15T04:21:29.811Z,100268.94
2022-11-15T04:24:14.782Z,100262.09
2022-11-15T04:26:44.352Z,100265.34
2022-11-15T04:29:31.498Z,100270.81
2022-11-15T04:32:01.155Z,100265.44
2022-11-15T04:34:32.004Z,100259.16
2022-11-15T04:37:17.205Z,100264.97
2022-11-15T04:39:46.752Z,100259.16
2022-11-15T04:42:16.343Z,100267.13
2022-11-15T04:44:45.824Z,100264.63
2022-11-15T04:47:15.344Z,100255.91
2022-11-15T04:49:46.491Z,100255.91
2022-11-15T04:52:16.326Z,100259.25
2022-11-15T04:54:45.789Z,100257.13
2022-11-15T04:57:16.021Z,100258.16
2022-11-15T04:59:45.540Z,100263.25
2022-11-15T05:02:15.104Z,100255.22
2022-11-15T05:04:45.176Z,100254.88
2022-11-15T05:07:16.730Z,100252.31
2022-11-15T05:09:46.271Z,100256.56
2022-11-15T05:12:16.428Z,100253.06
2022-11-15T05:14:46.265Z,100255.22
2022-11-15T05:17:16.267Z,100252.13
2022-11-15T05:19:47.321Z,100254.69
2022-11-15T05:22:17.011Z,100251.44
2022-11-15T05:24:46.566Z,100248.72
2022-11-15T05:27:16.185Z,100258.19
2022-11-15T05:29:45.731Z,100254.88
2022-11-15T05:32:15.375Z,100253.75
2022-11-15T05:34:45.464Z,100261.78
2022-11-15T05:37:17.828Z,100264.09
2022-11-15T05:39:47.577Z,100256.03
2022-11-15T05:42:17.474Z,100269.38
2022-11-15T05:44:49.636Z,100264.31
2022-11-15T05:47:22.213Z,100273.56
2022-11-15T05:49:53.142Z,100270.03
2022-11-15T05:52:25.865Z,100268.66
2022-11-15T05:54:56.738Z,100265.25
2022-11-15T05:57:26.329Z,100269.53
2022-11-15T05:59:56.110Z,100272.63
2022-11-15T06:02:25.936Z,100280.41
2022-11-15T06:04:55.507Z,100267.94
2022-11-15T06:07:26.452Z,100277.66
2022-11-15T06:09:56.055Z,100276.06
2022-11-15T06:12:25.889Z,100276.44
2022-11-15T06:14:55.564Z,100282.06
2022-11-15T06:17:25.139Z,100281.50
2022-11-15T06:19:54.768Z,100281.78
2022-11-15T06:22:24.359Z,100287.75
2022-11-15T06:24:55.398Z,100281.41
2022-11-15T06:27:24.976Z,100274.31
2022-11-15T06:29:54.524Z,100282.16
2022-11-15T06:32:24.134Z,100284.63
2022-11-15T06:34:53.645Z,100278.75
2022-11-15T06:37:23.236Z,100287.09
2022-11-15T06:39:52.771Z,100294.22
2022-11-15T06:42:23.952Z,100284.34
2022-11-15T06:44:53.573Z,100279.72
2022-11-15T06:47:23.165Z,100280.84
2022-11-15T06:49:52.807Z,100275.16
2022-11-15T06:52:22.788Z,100279.44
2022-11-15T06:54:52.648Z,100279.34
2022-11-15T06:57:22.366Z,100279.16
2022-11-15T06:59:53.546Z,100280.97
2022-11-15T07:02:23.130Z,100277.06
2022-11-15T07:04:52.652Z,100276.88
2022-11-15T07:07:22.183Z,100268.63
2022-11-15T07:09:51.767Z,100263.81
2022-11-15T07:12:21.985Z,100256.38
2022-11-15T07:14:53.324Z,100259.50
2022-11-15T07:17:23.426Z,100255.63
2022-11-15T07:19:53.098Z,100266.88
2022-11-15T07:22:22.642Z,100264.97
2022-11-15T07:24:52.291Z,100265.84
2022-11-15T07:27:21.913Z,100266.47
2022-11-15T07:29:53.238Z,100261.16
2022-11-15T07:32:23.037Z,100259.28
2022-11-15T07:34:52.578Z,100263.56
2022-11-15T07:37:22.182Z,100263.34
2022-11-15T07:39:51.727Z,100261.44
2022-11-15T07:42:38.756Z,100267.44
2022-11-15T07:45:10.232Z,100262.94
2022-11-15T07:47:39.824Z,100263.69
2022-11-15T07:50:09.686Z,100265.31
2022-11-15T07:52:39.451Z,100269.56
2022-11-15T07:55:09.844Z,100275.53
2022-11-15T07:57:39.430Z,100277.91
2022-11-15T08:00:11.217Z,100270.69
2022-11-15T08:02:41.405Z,100273.13
2022-11-15T08:05:11.261Z,100277.03
2022-11-15T08:07:41.198Z,100272.28
2022-11-15T08:10:12.479Z,100277.09
2022-11-15T08:12:43.866Z,100272.72
2022-11-15T08:15:15.478Z,100263.72
2022-11-15T08:17:45.020Z,100260.75
2022-11-15T08:20:14.630Z,100265.84
2022-11-15T08:22:44.239Z,100272.78
2022-11-15T08:25:14.255Z,100265.22
2022-11-15T08:27:43.890Z,100269.69
2022-11-15T08:30:17.082Z,100259.28
2022-11-15T08:32:46.727Z,100253.47
2022-11-15T08:35:16.498Z,100263.34
2022-11-15T08:37:46.104Z,100262.84
2022-11-15T08:40:15.891Z,100254.00
2022-11-15T08:42:47.820Z,100256.44
2022-11-15T08:45:18.851Z,100257.63
2022-11-15T08:47:53.980Z,100250.22
2022-11-15T08:50:24.417Z,100250.84
2022-11-15T08:52:54.052Z,100246.28
2022-11-15T08:55:24.932Z,100240.66
2022-11-15T08:57:54.628Z,100236.94
2022-11-15T09:00:25.606Z,100240.31
2022-11-15T09:02:55.110Z,100230.47
2022-11-15T09:05:24.809Z,100232.94
2022-11-15T09:07:54.992Z,100221.53
2022-11-15T09:10:25.222Z,100219.63
2022-11-15T09:12:55.513Z,100221.19
2022-11-15T09:15:26.992Z,100217.91
2022-11-15T09:17:59.842Z,100217.06
2022-11-15T09:20:29.996Z,100208.22
2022-11-15T09:23:01.922Z,100207.06
2022-11-15T09:25:32.021Z,100203.22
2022-11-15T09:28:02.850Z,100195.97
2022-11-15T09:30:33.720Z,100193.13
2022-11-15T09:33:08.059Z,100184.94
2022-11-15T09:35:37.770Z,100187.28
2022-11-15T09:38:07.233Z,100175.75
2022-11-15T09:40:39.897Z,100178.13
2022-11-15T09:43:26.418Z,100165.31
2022-11-15T09:46:03.114Z,100172.13
2022-11-15T09:48:40.806Z,100166.81
2022-11-15T09:51:14.863Z,100158.25
2022-11-15T09:56:41.869Z,100161.00
2022-11-15T09:59:19.483Z,100152.78
2022-11-15T10:01:56.118Z,100140.63
2022-11-15T10:04:27.487Z,100136.66
2022-11-15T10:07:00.254Z,100134.75
2022-11-15T10:09:34.237Z,100128.22
2022-11-15T10:12:04.509Z,100131.75
2022-11-15T10:14:34.576Z,100127.25
2022-11-15T10:17:19.509Z,100118.19
2022-11-15T10:19:58.552Z,100125.00
2022-11-15T10:22:37.477Z,100125.50
2022-11-15T10:25:18.273Z,100118.75
2022-11-15T10:27:53.262Z,100114.78
2022-11-15T10:30:23.350Z,100111.75
2022-11-15T10:32:52.893Z,100107.31
2022-11-15T10:35:25.373Z,100097.00
2022-11-15T10:38:06.205Z,100102.94
2022-11-15T10:40:36.665Z,100094.81
2022-11-15T10:43:07.824Z,100095.34
2022-11-15T10:45:37.804Z,100088.41
2022-11-15T10:48:26.007Z,100086.47
2022-11-15T10:50:57.238Z,100079.69
2022-11-15T10:53:31.641Z,100075.56
2022-11-15T10:56:03.783Z,100066.97
2022-11-15T10:58:36.437Z,100080.69
2022-11-15T11:01:17.116Z,100072.72
2022-11-15T11:03:47.921Z,100066.38
2022-11-15T11:06:19.630Z,100076.56
2022-11-15T11:08:56.877Z,100076.25
2022-11-15T11:11:26.577Z,100066.78
2022-11-15T11:13:56.609Z,100057.59
2022-11-15T11:16:41.463Z,100057.59
2022-11-15T11:19:17.843Z,100055.03
2022-11-15T11:21:51.722Z,100056.72
2022-11-15T11:24:26.710Z,100055.75
2022-11-15T11:27:03.553Z,100045.09
2022-11-15T11:29:39.303Z,100043.38
2022-11-15T11:32:18.727Z,100032.00
2022-11-15T11:34:54.556Z,100023.91
2022-11-15T11:37:30.941Z,100027.41
2022-11-15T11:40:10.934Z,100025.59
2022-11-15T11:42:48.405Z,100025.47
2022-11-15T11:45:22.472Z,100011.41
2022-11-15T11:47:56.821Z,100017.38
2022-11-15T11:50:28.285Z,100011.16
2022-11-15T11:53:04.336Z,100009.84
2022-11-15T11:55:37.448Z,100008.97
2022-11-15T11:58:13.282Z,99994.81
2022-11-15T12:00:44.148Z,99994.81
2022-11-15T12:03:15.334Z,99986.06
2022-11-15T12:05:46.881Z,99993.22
2022-11-15T12:08:23.781Z,99990.81
2022-11-15T12:10:56.560Z,99990.09
2022-11-15T12:13:28.307Z,99988.16
2022-11-15T12:16:09.054Z,99985.47
2022-11-15T12:18:40.234Z,99980.28
2022-11-15T12:21:15.392Z,99975.06
2022-11-15T12:23:48.512Z,99975.19
2022-11-15T12:26:21.109Z,99975.06
2022-11-15T12:29:06.890Z,99967.91
2022-11-15T12:31:39.576Z,99969.00
2022-11-15T12:34:17.845Z,99960.28
2022-11-15T12:36:47.311Z,99954.69
2022-11-15T12:39:18.893Z,99959.06
2022-11-15T12:42:12.199Z,99959.91
2022-11-15T12:45:01.172Z,99959.78
2022-11-15T12:47:30.948Z,99958.00
2022-11-15T12:50:00.422Z,99950.84
2022-11-15T12:52:29.998Z,99946.47
2022-11-15T12:55:03.002Z,99936.69
2022-11-15T12:57:37.625Z,99941.88
2022-11-15T13:00:25.775Z,99928.44
2022-11-15T13:03:18.563Z,99938.84
2022-11-15T13:05:57.223Z,99937.03
2022-11-15T13:08:44.938Z,99929.78
2022-11-15T13:11:35.432Z,99926.84
2022-11-15T13:14:26.979Z,99926.72
2022-11-15T13:17:00.252Z,99927.94
2022-11-15T13:19:30.812Z,99926.13
2022-11-15T13:22:14.219Z,99926.00
2022-11-15T13:24:43.826Z,99922.25
2022-11-15T13:27:17.752Z,99916.19
2022-11-15T13:29:48.800Z,99917.16
2022-11-15T13:32:18.895Z,99898.63
2022-11-15T13:34:52.379Z,99908.19
2022-11-15T13:37:33.579Z,99903.72
2022-11-15T13:40:18.010Z,99901.03
2022-11-15T13:42:47.581Z,99902.13
2022-11-15T13:45:20.733Z,99898.50
2022-11-15T13:47:53.866Z,99894.13
2022-11-15T13:50:25.324Z,99895.00
2022-11-15T13:52:56.013Z,99891.59
2022-11-15T13:55:26.122Z,99883.13
2022-11-15T13:57:56.929Z,99881.66
2022-11-15T14:00:29.536Z,99879.13
2022-11-15T14:03:05.380Z,99878.25
2022-11-15T14:05:35.142Z,99872.94
2022-11-15T14:08:05.637Z,99865.81
2022-11-15T14:10:35.876Z,99875.50
2022-11-15T14:13:12.584Z,99867.00
2022-11-15T14:15:44.098Z,99869.19
2022-11-15T14:18:39.431Z,99864.97
2022-11-15T14:21:09.897Z,99872.22
2022-11-15T14:23:39.683Z,99867.00
2022-11-15T14:26:13.601Z,99863.50
2022-11-15T14:28:43.248Z,99850.31
2022-11-15T14:31:14.905Z,99856.34
2022-11-15T14:33:44.524Z,99853.09
2022-11-15T14:36:14.886Z,99845.34
2022-11-15T14:38:44.899Z,99835.91
2022-11-15T14:41:20.166Z,99837.00
2022-11-15T14:43:50.214Z,99834.56
2022-11-15T14:46:21.293Z,99830.56
2022-11-15T14:48:51.258Z,99836.25
2022-11-15T14:51:21.390Z,99824.03
2022-11-15T14:53:52.132Z,99823.53
2022-11-15T14:56:21.732Z,99813.38
2022-11-15T14:58:51.318Z,99813.84
2022-11-15T15:01:24.164Z,99820.38
2022-11-15T15:03:56.852Z,99828.72
2022-11-15T15:06:26.850Z,99823.13
2022-11-15T15:08:56.473Z,99822.28
2022-11-15T15:11:27.619Z,99831.31
2022-11-15T15:14:02.089Z,99828.19
2022-11-15T15:16:33.499Z,99829.03
2022-11-15T15:19:03.072Z,99829.63
2022-11-15T15:21:37.231Z,99829.09
2022-11-15T15:24:07.355Z,99826.56
2022-11-15T15:26:37.612Z,99831.03
2022-11-15T15:29:07.635Z,99826.78
2022-11-15T15:31:38.558Z,99831.28
2022-11-15T15:34:13.689Z,99835.31
2022-11-15T15:36:46.413Z,99828.53
2022-11-15T15:39:16.365Z,99829.00
2022-11-15T15:41:46.122Z,99831.72
2022-11-15T15:44:15.604Z,99832.44
2022-11-15T15:46:46.670Z,99830.00
2022-11-15T15:49:16.486Z,99828.41
2022-11-15T15:51:45.978Z,99833.38
2022-11-15T15:54:15.706Z,99825.72
2022-11-15T15:56:45.267Z,99819.53
2022-11-15T15:59:14.839Z,99820.72
2022-11-15T16:01:44.536Z,99819.38
2022-11-15T16:04:15.573Z,99816.94
2022-11-15T16:06:46.570Z,99818.22
2022-11-15T16:09:17.686Z,99817.41
2022-11-15T16:11:48.922Z,99815.06
2022-11-15T16:14:18.898Z,99811.66
2022-11-15T16:16:49.025Z,99815.19
2022-11-15T16:19:19.970Z,99812.88
2022-11-15T16:21:49.585Z,99806.81
2022-11-15T16:24:19.145Z,99817.66
2022-11-15T16:26:49.188Z,99819.69
2022-11-15T16:29:22.012Z,99818.94
2022-11-15T16:31:51.916Z,99815.97
2022-11-15T16:34:23.089Z,99825.44
2022-11-15T16:36:53.325Z,99815.97
2022-11-15T16:39:23.700Z,99822.28
2022-11-15T16:41:53.418Z,99811.75
2022-11-15T16:44:23.521Z,99818.13
2022-11-15T16:46:53.239Z,99815.06
2022-11-15T16:49:24.475Z,99808.91
2022-11-15T16:51:54.409Z,99819.31
2022-11-15T16:54:23.957Z,99815.38
2022-11-15T16:56:56.825Z,99819.75
2022-11-15T16:59:26.329Z,99815.72
2022-11-15T17:01:56.101Z,99821.34
2022-11-15T17:04:32.735Z,99819.44
2022-11-15T17:07:02.391Z,99816.16
2022-11-15T17:09:33.100Z,99813.06
2022-11-15T17:12:04.420Z,99809.38
2022-11-15T17:14:34.461Z,99811.81
2022-11-15T17:17:04.584Z,99809.59
2022-11-15T17:19:35.482Z,99813.72
2022-11-15T17:22:05.081Z,99807.69
2022-11-15T17:24:34.765Z,99751.22
2022-11-15T17:27:04.454Z,99803.00
2022-11-15T17:29:34.035Z,99802.69
2022-11-15T17:32:06.947Z,99795.34
2022-11-15T17:34:39.170Z,99792.56
2022-11-15T17:37:08.720Z,99795.66
2022-11-15T17:39:40.113Z,99795.31
2022-11-15T17:42:09.945Z,99793.50
2022-11-15T17:44:39.688Z,99787.44
2022-11-15T17:47:09.494Z,99777.47
2022-11-15T17:49:41.084Z,99776.00
2022-11-15T17:52:10.548Z,99780.84
2022-11-15T17:54:40.335Z,99783.50
2022-11-15T17:57:10.135Z,99785.31
2022-11-15T17:59:39.919Z,99778.09
2022-11-15T18:02:10.480Z,99797.06
2022-11-15T18:04:42.156Z,99779.56
2022-11-15T18:07:12.626Z,99782.25
2022-11-15T18:09:44.239Z,99776.47
2022-11-15T18:12:13.896Z,99770.09
2022-11-15T18:14:43.413Z,99772.03
2022-11-15T18:17:13.050Z,99778.31
2022-11-15T18:19:44.020Z,99777.34
2022-11-15T18:22:13.618Z,99778.88
2022-11-15T18:24:43.969Z,99781.25
2022-11-15T18:27:14.840Z,99772.41
2022-11-15T18:29:44.898Z,99770.69
2022-11-15T18:32:17.720Z,99762.91
2022-11-15T18:34:48.806Z,99764.34
2022-11-15T18:37:18.387Z,99765.41
2022-11-15T18:39:52.694Z,99764.28
2022-11-15T18:42:23.367Z,99760.50
2022-11-15T18:44:53.095Z,99772.94
2022-11-15T18:47:22.727Z,99772.00
2022-11-15T18:49:53.619Z,99763.47
2022-11-15T18:52:23.085Z,99758.25
2022-11-15T18:54:52.655Z,99760.06
2022-11-15T18:57:22.244Z,99760.81
2022-11-15T18:59:53.188Z,99758.09
2022-11-15T19:02:22.945Z,99759.72
2022-11-15T19:04:55.304Z,99762.44
2022-11-15T19:07:24.904Z,99765.63
2022-11-15T19:09:54.551Z,99752.59
2022-11-15T19:12:24.663Z,99761.34
2022-11-15T19:14:56.095Z,99761.44
2022-11-15T19:17:26.513Z,99754.34
2022-11-15T19:19:57.780Z,99754.84
2022-11-15T19:22:27.299Z,99757.84
2022-11-15T19:24:56.828Z,99756.38
2022-11-15T19:27:26.560Z,99750.69
2022-11-15T19:29:56.683Z,99747.94
2022-11-15T19:32:26.424Z,99751.81
2022-11-15T19:34:57.363Z,99741.03
2022-11-15T19:37:27.150Z,99734.00
2022-11-15T19:39:58.093Z,99731.91
2022-11-15T19:42:27.733Z,99728.72
2022-11-15T19:44:57.196Z,99727.38
2022-11-15T19:47:28.444Z,99729.06
2022-11-15T19:49:59.583Z,99725.78
2022-11-15T19:52:29.150Z,99722.34
2022-11-15T19:54:59.197Z,99720.09
2022-11-15T19:57:28.769Z,99715.00
2022-11-15T20:00:01.870Z,99718.66
2022-11-15T20:02:34.337Z,99717.03
2022-11-15T20:05:05.497Z,99712.25
2022-11-15T20:07:35.184Z,99720.19
2022-11-15T20:10:06.324Z,99716.97
2022-11-15T20:12:36.709Z,99716.31
2022-11-15T20:15:06.959Z,99711.63
2022-11-15T20:17:37.355Z,99721.22
2022-11-15T20:20:09.327Z,99716.72
2022-11-15T20:22:39.225Z,99713.19
2022-11-15T20:25:10.547Z,99715.41
2022-11-15T20:27:40.148Z,99698.50
2022-11-15T20:30:10.734Z,99694.13
2022-11-15T20:32:40.275Z,99692.81
2022-11-15T20:35:11.319Z,99689.88
2022-11-15T20:37:40.941Z,99685.53
2022-11-15T20:40:11.061Z,99684.91
2022-11-15T20:42:41.184Z,99695.06
2022-11-15T20:45:11.025Z,99690.72
2022-11-15T20:47:41.917Z,99687.06
2022-11-15T20:50:35.783Z,99688.13
2022-11-15T20:53:02.385Z,99673.84
2022-11-15T20:55:32.005Z,99672.13
2022-11-15T20:58:01.912Z,99677.78
2022-11-15T21:00:31.483Z,99675.63
2022-11-15T21:03:01.350Z,99677.59
2022-11-15T21:05:32.432Z,99675.25
2022-11-15T21:08:02.143Z,99674.59
2022-11-15T21:10:49.134Z,99668.09
2022-11-15T21:13:19.358Z,99669.03
2022-11-15T21:15:49.405Z,99668.00
2022-11-15T21:18:19.290Z,99666.28
2022-11-15T21:20:50.951Z,99662.13
2022-11-15T21:23:21.834Z,99661.94
2022-11-15T21:25:51.431Z,99662.22
2022-11-15T21:28:21.184Z,99654.50
2022-11-15T21:30:55.163Z,99656.66
2022-11-15T21:33:27.407Z,99644.13
2022-11-15T21:35:58.913Z,99649.78
2022-11-15T21:38:29.132Z,99644.69
2022-11-15T21:41:03.585Z,99640.91
2022-11-15T21:43:33.303Z,99634.78
2022-11-15T21:46:05.783Z,99634.47
2022-11-15T21:48:36.407Z,99632.13
2022-11-15T21:51:08.656Z,99630.06
2022-11-15T21:53:38.264Z,99628.81
2022-11-15T21:56:08.733Z,99621.84
2022-11-15T21:58:39.540Z,99614.66
2022-11-15T22:01:26.507Z,99614.47
2022-11-15T22:03:56.255Z,99602.59
2022-11-15T22:06:27.189Z,99605.31
2022-11-15T22:08:56.729Z,99596.66
2022-11-15T22:11:26.313Z,99609.28
2022-11-15T22:13:56.344Z,99600.53
2022-11-15T22:16:27.687Z,99599.78
2022-11-15T22:18:57.686Z,99585.78
2022-11-15T22:21:29.022Z,99598.25
2022-11-15T22:23:58.650Z,99583.34
2022-11-15T22:26:28.293Z,99582.78
2022-11-15T22:28:58.358Z,99584.09
2022-11-15T22:31:28.227Z,99572.78
2022-11-15T22:33:58.078Z,99568.25
2022-11-15T22:36:42.530Z,99561.47
2022-11-15T22:39:18.761Z,99558.53
2022-11-15T22:41:48.426Z,99552.56
2022-11-15T22:44:18.125Z,99547.19
2022-11-15T22:46:48.078Z,99554.38
2022-11-15T22:49:17.704Z,99550.13
2022-11-15T22:51:49.047Z,99550.13
2022-11-15T22:54:18.680Z,99541.00
2022-11-15T22:56:48.316Z,99539.47
2022-11-15T22:59:18.122Z,99537.13
2022-11-15T23:01:47.842Z,99535.06
2022-11-15T23:04:17.475Z,99529.19
2022-11-15T23:06:47.541Z,99541.06
2022-11-15T23:09:18.610Z,99529.50
2022-11-15T23:12:07.982Z,99519.19
2022-11-15T23:14:39.442Z,99517.19
2022-11-15T23:17:14.461Z,99508.84
2022-11-15T23:19:44.127Z,99509.38
2022-11-15T23:22:31.287Z,99512.03
2022-11-15T23:25:02.320Z,99497.50
2022-11-15T23:27:31.985Z,99515.78
2022-11-15T23:30:19.144Z,99502.88
2022-11-15T23:33:06.356Z,99497.31
2022-11-15T23:35:36.088Z,99499.19
2022-11-15T23:38:05.740Z,99492.50
2022-11-15T23:40:36.796Z,99494.94
2022-11-15T23:43:06.461Z,99491.81
2022-11-15T23:45:38.958Z,99482.66
2022-11-15T23:48:08.545Z,99488.81
2022-11-15T23:50:38.448Z,99473.31
2022-11-15T23:53:08.161Z,99479.78
2022-11-15T23:55:39.239Z,99467.34
2022-11-15T23:58:08.901Z,99472.34
